createdAt,value
2019-03-25T00:02:09.590Z,39.90
2019-03-25T00:05:14.085Z,40.00
2019-03-25T00:08:18.528Z,39.90
2019-03-25T00:11:22.905Z,40.50
2019-03-25T00:14:27.144Z,40.50
2019-03-25T00:17:31.377Z,40.70
2019-03-25T00:20:35.694Z,40.70
2019-03-25T00:23:39.938Z,41.30
2019-03-25T00:26:44.159Z,41.40
2019-03-25T00:29:48.630Z,41.20
2019-03-25T00:32:52.915Z,41.20
2019-03-25T00:35:57.154Z,42.00
2019-03-25T00:39:01.833Z,41.80
2019-03-25T00:42:06.702Z,42.10
2019-03-25T00:45:11.050Z,42.10
2019-03-25T00:48:15.257Z,42.40
2019-03-25T00:51:19.491Z,42.20
2019-03-25T00:54:23.702Z,41.90
2019-03-25T00:57:27.919Z,42.20
2019-03-25T01:00:32.251Z,42.10
2019-03-25T01:03:36.489Z,42.20
2019-03-25T01:06:40.742Z,41.60
2019-03-25T01:09:44.952Z,41.70
2019-03-25T01:12:49.185Z,41.80
2019-03-25T01:15:53.414Z,42.00
2019-03-25T01:18:57.766Z,41.90
2019-03-25T01:22:01.988Z,42.10
2019-03-25T01:25:06.622Z,41.90
2019-03-25T01:28:10.922Z,41.60
2019-03-25T01:31:15.330Z,42.10
2019-03-25T01:34:19.574Z,42.20
2019-03-25T01:37:23.823Z,41.70
2019-03-25T01:40:29.742Z,42.40
2019-03-25T01:43:34.266Z,43.20
2019-03-25T01:46:38.482Z,43.20
2019-03-25T01:49:42.735Z,42.70
2019-03-25T01:52:46.926Z,43.10
2019-03-25T01:55:51.149Z,43.30
2019-03-25T01:58:55.459Z,42.90
2019-03-25T02:01:59.749Z,43.30
2019-03-25T02:05:04.229Z,43.80
2019-03-25T02:08:08.426Z,44.10
2019-03-25T02:11:13.570Z,44.20
2019-03-25T02:14:17.789Z,44.10
2019-03-25T02:17:21.965Z,44.20
2019-03-25T02:20:26.974Z,45.30
2019-03-25T02:23:31.296Z,44.80
2019-03-25T02:26:35.741Z,44.50
2019-03-25T02:29:39.958Z,44.60
2019-03-25T02:32:44.158Z,44.30
2019-03-25T02:35:48.369Z,44.90
2019-03-25T02:38:52.539Z,45.40
2019-03-25T02:41:56.776Z,45.20
2019-03-25T02:45:01.226Z,45.10
2019-03-25T02:48:05.650Z,45.10
2019-03-25T02:51:09.870Z,45.60
2019-03-25T02:54:14.071Z,45.80
2019-03-25T02:57:18.499Z,45.00
2019-03-25T03:00:34.078Z,45.80
2019-03-25T03:03:38.291Z,45.40
2019-03-25T03:06:42.466Z,45.40
2019-03-25T03:09:46.669Z,45.80
2019-03-25T03:12:50.976Z,45.60
2019-03-25T03:15:55.222Z,45.40
2019-03-25T03:18:59.422Z,44.80
2019-03-25T03:22:03.598Z,45.30
2019-03-25T03:25:07.964Z,45.10
2019-03-25T03:28:12.334Z,45.10
2019-03-25T03:31:16.762Z,45.40
2019-03-25T03:37:31.073Z,45.30
2019-03-25T03:40:35.293Z,45.20
2019-03-25T03:43:39.497Z,45.30
2019-03-25T03:46:44.559Z,45.20
2019-03-25T03:49:48.788Z,45.40
2019-03-25T03:52:53.043Z,44.40
2019-03-25T03:56:11.893Z,44.20
2019-03-25T03:59:04.387Z,44.50
2019-03-25T04:02:08.965Z,44.70
2019-03-25T04:05:13.271Z,44.60
2019-03-25T04:08:17.493Z,44.40
2019-03-25T04:11:21.804Z,44.10
2019-03-25T04:14:26.280Z,44.10
2019-03-25T04:17:30.731Z,44.90
2019-03-25T04:20:34.983Z,44.80
2019-03-25T04:23:39.483Z,45.00
2019-03-25T04:26:43.693Z,45.40
2019-03-25T04:29:47.960Z,46.10
2019-03-25T04:32:52.157Z,46.20
2019-03-25T04:35:56.381Z,45.80
2019-03-25T04:39:00.617Z,45.10
2019-03-25T04:42:05.094Z,45.80
2019-03-25T04:45:09.631Z,46.10
2019-03-25T04:48:13.821Z,46.10
2019-03-25T04:51:18.038Z,46.00
2019-03-25T04:54:22.262Z,45.60
2019-03-25T04:57:26.610Z,45.80
2019-03-25T05:00:34.986Z,45.40
2019-03-25T05:03:39.234Z,45.20
2019-03-25T05:06:43.439Z,45.30
2019-03-25T05:09:47.695Z,45.40
2019-03-25T05:12:51.933Z,44.50
2019-03-25T05:15:56.129Z,44.50
2019-03-25T05:19:00.366Z,44.50
2019-03-25T05:22:04.618Z,44.30
2019-03-25T05:25:09.043Z,44.50
2019-03-25T05:28:13.287Z,45.00
2019-03-25T05:31:17.478Z,44.90
2019-03-25T05:34:22.109Z,45.10
2019-03-25T05:37:26.349Z,44.70
2019-03-25T05:40:30.798Z,45.10
2019-03-25T05:43:35.026Z,44.70
2019-03-25T05:46:39.209Z,45.90
2019-03-25T05:49:43.523Z,46.20
2019-03-25T05:52:47.737Z,47.00
2019-03-25T05:55:51.963Z,48.00
2019-03-25T05:58:56.187Z,49.10
2019-03-25T06:02:00.467Z,53.10
2019-03-25T06:05:04.996Z,56.90
2019-03-25T06:08:09.243Z,61.50
2019-03-25T06:11:13.417Z,61.30
2019-03-25T06:14:17.682Z,62.00
2019-03-25T06:17:21.923Z,63.30
2019-03-25T06:20:26.146Z,64.90
2019-03-25T06:23:30.368Z,64.50
2019-03-25T06:26:34.828Z,63.90
2019-03-25T06:29:39.446Z,64.40
2019-03-25T06:32:43.696Z,63.50
2019-03-25T06:35:48.105Z,66.00
2019-03-25T06:38:52.438Z,68.50
2019-03-25T06:41:56.676Z,70.00
2019-03-25T06:45:00.898Z,70.40
2019-03-25T06:48:05.147Z,70.10
2019-03-25T06:51:09.345Z,70.30
2019-03-25T06:54:13.549Z,70.30
2019-03-25T06:57:25.452Z,70.70
2019-03-25T07:00:25.712Z,71.80
2019-03-25T07:03:29.994Z,71.20
2019-03-25T07:06:34.203Z,72.40
2019-03-25T07:09:38.450Z,71.60
2019-03-25T07:12:42.641Z,71.00
2019-03-25T07:15:46.908Z,71.10
2019-03-25T07:18:51.120Z,72.20
2019-03-25T07:21:55.364Z,72.40
2019-03-25T07:24:59.593Z,73.30
2019-03-25T07:28:03.878Z,74.10
2019-03-25T07:31:08.091Z,74.00
2019-03-25T07:34:12.286Z,75.10
2019-03-25T07:37:16.530Z,74.40
2019-03-25T07:40:20.847Z,75.10
2019-03-25T07:43:25.168Z,74.50
2019-03-25T07:46:29.435Z,75.20
2019-03-25T07:49:33.956Z,75.10
2019-03-25T07:52:38.314Z,74.50
2019-03-25T07:55:42.580Z,73.60
2019-03-25T07:58:46.842Z,73.70
2019-03-25T08:01:51.220Z,73.50
2019-03-25T08:04:55.774Z,72.80
2019-03-25T08:08:00.177Z,71.50
2019-03-25T08:11:04.498Z,71.80
2019-03-25T08:14:08.781Z,70.60
2019-03-25T08:17:13.119Z,69.40
2019-03-25T08:20:17.494Z,69.60
2019-03-25T08:23:21.937Z,69.60
2019-03-25T08:26:26.169Z,70.70
2019-03-25T08:29:30.400Z,68.80
2019-03-25T08:32:34.685Z,70.00
2019-03-25T08:35:38.857Z,69.20
2019-03-25T08:38:43.144Z,69.30
2019-03-25T08:41:47.625Z,68.50
2019-03-25T08:44:51.866Z,67.00
2019-03-25T08:47:56.123Z,66.90
2019-03-25T08:51:00.405Z,67.10
2019-03-25T08:54:04.714Z,66.10
2019-03-25T08:57:09.626Z,66.10
2019-03-25T09:00:14.588Z,64.10
2019-03-25T09:03:18.870Z,63.40
2019-03-25T09:06:23.494Z,62.30
2019-03-25T09:09:27.788Z,61.20
2019-03-25T09:12:32.163Z,59.90
2019-03-25T09:15:36.431Z,61.40
2019-03-25T09:18:40.689Z,62.10
2019-03-25T09:21:44.913Z,61.20
2019-03-25T09:24:49.219Z,60.60
2019-03-25T09:27:53.435Z,59.40
2019-03-25T09:31:09.607Z,60.70
2019-03-25T09:34:13.829Z,58.50
2019-03-25T09:37:18.140Z,58.30
2019-03-25T09:40:22.374Z,57.20
2019-03-25T09:43:26.661Z,56.60
2019-03-25T09:46:30.869Z,56.70
2019-03-25T09:49:35.097Z,56.60
2019-03-25T09:52:39.290Z,53.10
2019-03-25T09:55:43.834Z,51.80
2019-03-25T09:58:48.105Z,49.30
2019-03-25T10:01:52.351Z,48.10
2019-03-25T10:04:56.593Z,49.30
2019-03-25T10:08:00.814Z,49.90
2019-03-25T10:11:05.475Z,48.70
2019-03-25T10:14:09.890Z,48.50
2019-03-25T10:17:14.111Z,50.90
2019-03-25T10:20:18.542Z,50.50
2019-03-25T10:23:23.033Z,51.90
2019-03-25T10:26:27.294Z,52.90
2019-03-25T10:29:31.586Z,51.40
2019-03-25T10:32:35.811Z,51.70
2019-03-25T10:35:40.037Z,51.70
2019-03-25T10:38:44.302Z,51.00
2019-03-25T10:41:48.478Z,53.30
2019-03-25T10:44:52.917Z,51.40
2019-03-25T10:47:57.130Z,50.80
2019-03-25T10:51:01.428Z,50.00
2019-03-25T10:54:05.666Z,49.30
2019-03-25T10:57:09.971Z,49.70
2019-03-25T11:00:15.129Z,48.80
2019-03-25T11:03:19.342Z,46.00
2019-03-25T11:06:23.573Z,45.10
2019-03-25T11:09:27.772Z,46.40
2019-03-25T11:12:32.168Z,44.30
2019-03-25T11:15:36.395Z,44.80
2019-03-25T11:18:40.651Z,42.80
2019-03-25T11:21:45.134Z,42.20
2019-03-25T11:24:49.348Z,41.50
2019-03-25T11:27:54.569Z,41.70
2019-03-25T11:31:00.355Z,39.80
2019-03-25T11:34:04.889Z,40.80
2019-03-25T11:37:09.245Z,43.30
2019-03-25T11:40:13.859Z,45.50
2019-03-25T11:43:18.266Z,47.20
2019-03-25T11:46:23.610Z,50.00
2019-03-25T11:49:27.943Z,50.50
2019-03-25T11:52:32.425Z,51.80
2019-03-25T11:55:36.698Z,52.80
2019-03-25T11:58:41.105Z,53.60
2019-03-25T12:01:45.349Z,50.90
2019-03-25T12:04:49.580Z,48.80
2019-03-25T12:07:54.090Z,44.30
2019-03-25T12:10:58.360Z,46.30
2019-03-25T12:14:02.706Z,46.50
2019-03-25T12:17:06.934Z,41.90
2019-03-25T12:20:11.859Z,40.40
2019-03-25T12:23:25.798Z,42.60
2019-03-25T12:26:22.094Z,40.60
2019-03-25T12:29:30.458Z,39.30
2019-03-25T12:32:32.635Z,37.30
2019-03-25T12:35:36.930Z,38.00
2019-03-25T12:38:41.241Z,37.20
2019-03-25T12:41:45.495Z,39.00
2019-03-25T12:44:50.010Z,38.70
2019-03-25T12:47:54.350Z,39.50
2019-03-25T12:50:58.601Z,38.20
2019-03-25T12:54:02.846Z,39.20
2019-03-25T12:57:07.832Z,40.50
2019-03-25T13:00:12.411Z,39.80
2019-03-25T13:03:16.662Z,39.70
2019-03-25T13:06:20.905Z,37.90
2019-03-25T13:09:25.090Z,38.10
2019-03-25T13:12:29.313Z,38.50
2019-03-25T13:15:33.614Z,37.60
2019-03-25T13:18:37.878Z,37.90
2019-03-25T13:21:42.139Z,37.10
2019-03-25T13:24:46.327Z,36.00
2019-03-25T13:27:50.581Z,34.60
2019-03-25T13:30:54.790Z,34.50
2019-03-25T13:33:59.018Z,31.70
2019-03-25T13:37:03.362Z,32.00
2019-03-25T13:40:08.078Z,31.80
2019-03-25T13:43:12.318Z,30.20
2019-03-25T13:46:16.567Z,30.50
2019-03-25T13:49:20.890Z,33.90
2019-03-25T13:52:25.210Z,37.60
2019-03-25T13:55:29.415Z,39.80
2019-03-25T13:58:33.678Z,43.10
2019-03-25T14:01:37.919Z,44.10
2019-03-25T14:04:42.138Z,46.20
2019-03-25T14:07:46.381Z,45.50
2019-03-25T14:10:50.647Z,46.60
2019-03-25T14:13:54.932Z,48.20
2019-03-25T14:16:59.498Z,47.10
2019-03-25T14:20:03.899Z,49.60
2019-03-25T14:23:08.109Z,50.10
2019-03-25T14:26:13.171Z,51.50
2019-03-25T14:29:17.417Z,47.00
2019-03-25T14:32:21.662Z,49.00
2019-03-25T14:35:25.862Z,49.00
2019-03-25T14:38:30.085Z,49.40
2019-03-25T14:41:34.300Z,51.00
2019-03-25T14:44:38.510Z,50.30
2019-03-25T14:47:42.775Z,49.30
2019-03-25T14:50:47.069Z,49.00
2019-03-25T14:53:51.416Z,48.90
2019-03-25T14:56:55.841Z,49.20
2019-03-25T15:00:00.324Z,49.80
2019-03-25T15:03:04.907Z,48.70
2019-03-25T15:06:09.118Z,48.90
2019-03-25T15:09:13.442Z,50.10
2019-03-25T15:12:17.843Z,48.70
2019-03-25T15:15:22.174Z,48.60
2019-03-25T15:18:26.610Z,47.60
2019-03-25T15:21:30.854Z,45.60
2019-03-25T15:24:35.062Z,46.40
2019-03-25T15:27:39.434Z,45.40
2019-03-25T15:30:43.694Z,42.90
2019-03-25T15:33:48.177Z,41.70
2019-03-25T15:36:52.431Z,42.50
2019-03-25T15:39:56.666Z,40.90
2019-03-25T15:43:00.839Z,40.70
2019-03-25T15:46:05.156Z,40.60
2019-03-25T15:49:09.411Z,40.10
2019-03-25T15:52:13.566Z,40.20
2019-03-25T15:55:17.907Z,41.10
2019-03-25T15:58:26.276Z,42.20
2019-03-25T16:01:28.322Z,40.90
2019-03-25T16:04:32.533Z,42.10
2019-03-25T16:07:37.313Z,42.10
2019-03-25T16:10:41.535Z,42.50
2019-03-25T16:13:45.722Z,42.80
2019-03-25T16:16:50.118Z,43.60
2019-03-25T16:19:54.399Z,42.90
2019-03-25T16:22:58.631Z,43.10
2019-03-25T16:26:02.938Z,42.80
2019-03-25T16:29:07.275Z,43.60
2019-03-25T16:32:11.528Z,43.50
2019-03-25T16:35:15.768Z,42.80
2019-03-25T16:38:19.946Z,43.10
2019-03-25T16:41:24.163Z,43.40
2019-03-25T16:44:28.354Z,44.40
2019-03-25T16:47:32.622Z,45.30
2019-03-25T16:50:36.824Z,45.60
2019-03-25T16:53:40.989Z,46.20
2019-03-25T16:56:45.235Z,46.60
2019-03-25T16:59:49.473Z,46.70
2019-03-25T17:02:53.686Z,46.50
2019-03-25T17:05:57.906Z,47.40
2019-03-25T17:09:02.115Z,47.80
2019-03-25T17:12:06.478Z,47.20
2019-03-25T17:15:11.677Z,48.20
2019-03-25T17:18:15.985Z,48.30
2019-03-25T17:21:20.214Z,48.20
2019-03-25T17:24:24.475Z,46.90
2019-03-25T17:27:28.681Z,47.90
2019-03-25T17:30:33.514Z,47.50
2019-03-25T17:33:37.757Z,47.10
2019-03-25T17:36:41.973Z,47.40
2019-03-25T17:39:46.411Z,47.70
2019-03-25T17:42:50.755Z,46.20
2019-03-25T17:45:54.923Z,46.00
2019-03-25T17:48:59.164Z,45.90
2019-03-25T17:52:03.438Z,45.30
2019-03-25T17:55:08.134Z,45.90
2019-03-25T17:58:12.439Z,45.50
2019-03-25T18:01:32.383Z,45.80
2019-03-25T18:04:35.608Z,45.10
2019-03-25T18:07:39.917Z,45.40
2019-03-25T18:10:44.109Z,44.90
2019-03-25T18:13:49.378Z,45.70
2019-03-25T18:16:53.819Z,45.10
2019-03-25T18:20:00.084Z,45.10
2019-03-25T18:23:04.067Z,44.30
2019-03-25T18:26:08.381Z,44.90
2019-03-25T18:29:13.328Z,43.70
2019-03-25T18:32:17.594Z,43.90
2019-03-25T18:35:24.602Z,43.90
2019-03-25T18:38:28.851Z,43.30
2019-03-25T18:41:33.487Z,42.80
2019-03-25T18:44:37.731Z,42.30
2019-03-25T18:47:41.898Z,42.80
2019-03-25T18:50:46.174Z,42.30
2019-03-25T18:53:50.471Z,41.30
2019-03-25T18:56:54.792Z,42.10
2019-03-25T18:59:59.070Z,43.10
2019-03-25T19:03:04.409Z,42.00
2019-03-25T19:06:08.754Z,42.10
2019-03-25T19:09:13.034Z,41.70
2019-03-25T19:12:17.303Z,41.90
2019-03-25T19:15:22.222Z,42.00
2019-03-25T19:18:26.413Z,42.10
2019-03-25T19:21:30.701Z,41.50
2019-03-25T19:24:34.970Z,41.90
2019-03-25T19:27:39.204Z,40.80
2019-03-25T19:30:43.502Z,42.00
2019-03-25T19:33:47.725Z,41.80
2019-03-25T19:36:52.093Z,42.40
2019-03-25T19:39:56.642Z,42.50
2019-03-25T19:43:00.943Z,42.90
2019-03-25T19:46:05.532Z,43.10
2019-03-25T19:49:09.777Z,43.50
2019-03-25T19:52:14.261Z,43.60
2019-03-25T19:55:18.617Z,44.20
2019-03-25T19:58:22.956Z,44.60
2019-03-25T20:01:27.707Z,44.80
2019-03-25T20:04:32.257Z,45.10
2019-03-25T20:07:36.681Z,45.20
2019-03-25T20:10:41.085Z,45.80
2019-03-25T20:13:45.395Z,45.90
2019-03-25T20:16:49.945Z,46.60
2019-03-25T20:19:54.440Z,46.30
2019-03-25T20:22:58.992Z,46.80
2019-03-25T20:26:03.466Z,47.10
2019-03-25T20:29:07.983Z,47.50
2019-03-25T20:32:12.312Z,47.20
2019-03-25T20:35:17.353Z,48.30
2019-03-25T20:38:21.883Z,48.80
2019-03-25T20:41:26.156Z,48.70
2019-03-25T20:44:30.616Z,49.00
2019-03-25T20:47:35.171Z,50.20
2019-03-25T20:50:39.629Z,50.40
2019-03-25T20:53:44.111Z,50.40
2019-03-25T20:56:49.433Z,50.80
2019-03-25T20:59:53.855Z,50.80
2019-03-25T21:02:58.110Z,50.50
2019-03-25T21:06:02.781Z,51.20
2019-03-25T21:09:07.796Z,51.20
2019-03-25T21:12:12.486Z,51.70
2019-03-25T21:15:16.935Z,52.00
2019-03-25T21:18:21.190Z,52.50
2019-03-25T21:21:25.668Z,52.70
2019-03-25T21:24:30.179Z,53.50
2019-03-25T21:27:34.566Z,53.60
2019-03-25T21:30:47.858Z,53.90
2019-03-25T21:33:44.918Z,54.20
2019-03-25T21:36:49.332Z,54.00
2019-03-25T21:39:53.619Z,54.50
2019-03-25T21:42:57.936Z,54.70
2019-03-25T21:46:02.306Z,55.20
2019-03-25T21:49:06.600Z,55.20
2019-03-25T21:52:10.769Z,54.80
2019-03-25T21:55:15.036Z,54.40
2019-03-25T21:58:19.348Z,55.10
2019-03-25T22:01:23.768Z,55.60
2019-03-25T22:04:27.992Z,56.20
2019-03-25T22:07:32.221Z,56.70
2019-03-25T22:10:37.584Z,56.20
2019-03-25T22:13:41.913Z,57.10
2019-03-25T22:16:46.175Z,57.70
2019-03-25T22:19:50.847Z,57.80
2019-03-25T22:22:55.691Z,57.80
2019-03-25T22:25:59.930Z,58.20
2019-03-25T22:29:04.170Z,59.00
2019-03-25T22:32:08.637Z,59.30
2019-03-25T22:35:12.930Z,59.40
2019-03-25T22:38:17.255Z,59.30
2019-03-25T22:41:21.598Z,59.20
2019-03-25T22:44:25.807Z,58.60
2019-03-25T22:47:30.195Z,59.30
2019-03-25T22:50:34.834Z,60.00
2019-03-25T22:53:39.110Z,59.80
2019-03-25T22:56:43.455Z,59.90
2019-03-25T22:59:47.647Z,60.10
2019-03-25T23:02:52.101Z,59.90
2019-03-25T23:05:56.306Z,60.50
2019-03-25T23:09:00.563Z,60.40
2019-03-25T23:12:04.847Z,60.90
2019-03-25T23:15:09.144Z,61.40
2019-03-25T23:18:13.497Z,61.90
2019-03-25T23:21:17.706Z,61.50
2019-03-25T23:24:22.358Z,61.90
2019-03-25T23:27:26.623Z,62.10
2019-03-25T23:30:30.878Z,62.20
2019-03-25T23:33:35.117Z,62.30
2019-03-25T23:36:39.351Z,62.30
2019-03-25T23:39:43.981Z,63.00
2019-03-25T23:42:48.197Z,62.70
2019-03-25T23:45:52.473Z,62.90
2019-03-25T23:48:56.950Z,62.60
2019-03-25T23:52:01.428Z,62.80
2019-03-25T23:55:06.545Z,63.10
2019-03-25T23:58:10.827Z,63.00
